createdAt,value
2023-07-24T00:02:17.709Z,100.00
2023-07-24T00:07:21.620Z,100.00
2023-07-24T00:12:27.442Z,100.00
2023-07-24T00:17:36.822Z,100.00
2023-07-24T00:22:42.452Z,100.00
2023-07-24T00:27:50.909Z,100.00
2023-07-24T00:32:54.909Z,100.00
2023-07-24T00:38:03.183Z,100.00
2023-07-24T00:43:08.265Z,100.00
2023-07-24T00:48:12.275Z,100.00
2023-07-24T00:53:17.198Z,100.00
2023-07-24T00:58:22.196Z,100.00
2023-07-24T01:03:33.868Z,100.00
2023-07-24T01:08:37.011Z,100.00
2023-07-24T01:13:47.350Z,100.00
2023-07-24T01:18:53.514Z,100.00
2023-07-24T01:24:05.464Z,100.00
2023-07-24T01:29:09.894Z,100.00
2023-07-24T01:34:12.933Z,100.00
2023-07-24T01:39:17.429Z,100.00
2023-07-24T01:44:21.917Z,100.00
2023-07-24T01:49:25.229Z,100.00
2023-07-24T01:54:28.650Z,100.00
2023-07-24T01:59:33.043Z,100.00
2023-07-24T02:04:36.223Z,100.00
2023-07-24T02:09:40.408Z,100.00
2023-07-24T02:14:44.902Z,100.00
2023-07-24T02:19:48.223Z,100.00
2023-07-24T02:24:51.326Z,100.00
2023-07-24T02:29:56.238Z,100.00
2023-07-24T02:34:59.366Z,100.00
2023-07-24T02:40:02.387Z,100.00
2023-07-24T02:45:12.019Z,100.00
2023-07-24T02:50:15.431Z,100.00
2023-07-24T02:55:18.542Z,100.00
2023-07-24T03:00:23.093Z,100.00
2023-07-24T03:05:26.341Z,100.00
2023-07-24T03:10:29.789Z,100.00
2023-07-24T03:15:34.475Z,100.00
2023-07-24T03:20:37.564Z,100.00
2023-07-24T03:25:40.942Z,100.00
2023-07-24T03:30:45.502Z,100.00
2023-07-24T03:35:49.411Z,100.00
2023-07-24T03:40:52.401Z,100.00
2023-07-24T03:45:56.867Z,100.00
2023-07-24T03:51:01.257Z,100.00
2023-07-24T03:56:04.424Z,100.00
2023-07-24T04:01:09.074Z,100.00
2023-07-24T04:06:12.379Z,100.00
2023-07-24T04:11:15.478Z,100.00
2023-07-24T04:16:20.305Z,100.00
2023-07-24T04:21:24.696Z,100.00
2023-07-24T04:26:28.048Z,100.00
2023-07-24T04:31:32.624Z,100.00
2023-07-24T04:36:35.673Z,100.00
2023-07-24T04:41:38.925Z,100.00
2023-07-24T04:46:43.629Z,100.00
2023-07-24T04:51:46.832Z,100.00
2023-07-24T04:56:49.868Z,100.00
2023-07-24T05:01:54.399Z,100.00
2023-07-24T05:06:57.930Z,100.00
2023-07-24T05:12:01.129Z,100.00
2023-07-24T05:17:06.281Z,100.00
2023-07-24T05:22:11.375Z,100.00
2023-07-24T05:27:16.998Z,100.00
2023-07-24T05:32:21.605Z,100.00
2023-07-24T05:37:24.689Z,100.00
2023-07-24T05:42:27.825Z,100.00
2023-07-24T05:47:32.373Z,100.00
2023-07-24T05:52:35.500Z,100.00
2023-07-24T05:57:38.973Z,100.00
2023-07-24T06:02:43.447Z,100.00
2023-07-24T06:07:46.632Z,100.00
2023-07-24T06:12:49.779Z,100.00
2023-07-24T06:17:54.896Z,100.00
2023-07-24T06:22:58.243Z,100.00
2023-07-24T06:28:01.531Z,100.00
2023-07-24T06:33:06.191Z,100.00
2023-07-24T06:38:09.982Z,100.00
2023-07-24T06:43:13.163Z,100.00
2023-07-24T06:48:17.592Z,100.00
2023-07-24T06:53:20.649Z,100.00
2023-07-24T06:58:23.869Z,100.00
2023-07-24T07:03:28.426Z,100.00
2023-07-24T07:08:32.302Z,100.00
2023-07-24T07:13:35.396Z,100.00
2023-07-24T07:18:42.199Z,100.00
2023-07-24T07:23:47.309Z,100.00
2023-07-24T07:28:50.697Z,100.00
2023-07-24T07:33:55.142Z,100.00
2023-07-24T07:38:58.396Z,100.00
2023-07-24T07:44:01.489Z,100.00
2023-07-24T07:49:06.202Z,100.00
2023-07-24T07:54:09.309Z,100.00
2023-07-24T07:59:12.377Z,100.00
2023-07-24T08:04:18.598Z,100.00
2023-07-24T08:09:22.709Z,100.00
2023-07-24T08:14:25.908Z,100.00
2023-07-24T08:19:31.890Z,100.00
2023-07-24T08:24:36.708Z,100.00
2023-07-24T08:29:39.957Z,100.00
2023-07-24T08:34:44.393Z,100.00
2023-07-24T08:39:47.666Z,100.00
2023-07-24T08:44:51.253Z,100.00
2023-07-24T08:49:56.869Z,100.00
2023-07-24T08:55:02.402Z,98.71
2023-07-24T09:00:06.468Z,100.00
2023-07-24T09:05:12.798Z,99.21
2023-07-24T09:10:16.936Z,98.33
2023-07-24T09:15:20.298Z,98.40
2023-07-24T09:25:34.964Z,93.67
2023-07-24T09:30:39.341Z,93.86
2023-07-24T09:35:43.755Z,93.72
2023-07-24T09:40:48.533Z,91.42
2023-07-24T09:45:52.708Z,89.36
2023-07-24T09:50:58.409Z,95.49
2023-07-24T09:56:04.365Z,100.00
2023-07-24T10:01:08.936Z,100.00
2023-07-24T10:06:15.971Z,100.00
2023-07-24T10:11:19.710Z,100.00
2023-07-24T10:16:23.042Z,100.00
2023-07-24T10:21:30.627Z,100.00
2023-07-24T10:26:37.199Z,100.00
2023-07-24T10:31:40.568Z,100.00
2023-07-24T10:36:45.087Z,100.00
2023-07-24T10:41:48.271Z,100.00
2023-07-24T10:46:51.356Z,100.00
2023-07-24T10:51:59.016Z,93.26
2023-07-24T10:57:02.586Z,100.00
2023-07-24T11:02:06.546Z,97.81
2023-07-24T11:07:11.074Z,97.25
2023-07-24T11:12:18.900Z,95.43
2023-07-24T11:17:22.207Z,95.30
2023-07-24T11:22:28.259Z,99.48
2023-07-24T11:27:31.286Z,100.00
2023-07-24T11:32:34.379Z,100.00
2023-07-24T11:37:38.976Z,100.00
2023-07-24T11:42:44.794Z,100.00
2023-07-24T11:47:49.623Z,100.00
2023-07-24T11:52:55.070Z,100.00
2023-07-24T11:57:58.962Z,97.96
2023-07-24T12:03:05.928Z,97.42
2023-07-24T12:08:10.908Z,94.67
2023-07-24T12:13:14.710Z,93.84
2023-07-24T12:18:17.949Z,98.53
2023-07-24T12:23:22.349Z,97.82
2023-07-24T12:28:25.476Z,96.86
2023-07-24T12:33:28.495Z,97.40
2023-07-24T12:38:33.079Z,93.58
2023-07-24T12:43:36.098Z,91.64
2023-07-24T12:48:39.187Z,87.75
2023-07-24T12:53:48.597Z,87.15
2023-07-24T12:59:07.629Z,82.90
2023-07-24T13:04:10.728Z,83.54
2023-07-24T13:09:15.365Z,79.99
2023-07-24T13:14:18.581Z,79.24
2023-07-24T13:19:21.879Z,77.12
2023-07-24T13:24:26.459Z,78.59
2023-07-24T13:29:29.543Z,77.95
2023-07-24T13:34:32.637Z,80.32
2023-07-24T13:39:37.882Z,76.61
2023-07-24T13:44:40.896Z,76.37
2023-07-24T13:49:44.029Z,77.21
2023-07-24T13:54:48.459Z,75.24
2023-07-24T13:59:51.648Z,77.61
2023-07-24T14:04:55.643Z,76.99
2023-07-24T14:10:00.484Z,79.89
2023-07-24T14:15:03.786Z,81.96
2023-07-24T14:20:08.076Z,83.19
2023-07-24T14:25:12.544Z,90.23
2023-07-24T14:30:15.830Z,96.10
2023-07-24T14:35:20.786Z,92.31
2023-07-24T14:40:25.271Z,91.93
2023-07-24T14:45:28.617Z,87.84
2023-07-24T14:50:31.756Z,86.51
2023-07-24T14:55:36.439Z,87.19
2023-07-24T15:00:39.687Z,83.40
2023-07-24T15:05:42.884Z,85.42
2023-07-24T15:10:47.440Z,82.38
2023-07-24T15:15:50.754Z,82.39
2023-07-24T15:20:54.789Z,82.22
2023-07-24T15:25:59.349Z,82.63
2023-07-24T15:31:02.569Z,82.65
2023-07-24T15:36:06.219Z,82.11
2023-07-24T15:41:10.711Z,80.57
2023-07-24T15:46:16.765Z,79.60
2023-07-24T15:51:21.372Z,82.63
2023-07-24T15:56:26.424Z,81.86
2023-07-24T16:01:30.091Z,83.54
2023-07-24T16:06:33.812Z,83.30
2023-07-24T16:11:38.309Z,83.68
2023-07-24T16:16:41.601Z,83.73
2023-07-24T16:21:46.880Z,84.42
2023-07-24T16:26:51.554Z,85.75
2023-07-24T16:31:54.971Z,87.63
2023-07-24T16:36:58.106Z,86.71
2023-07-24T16:42:02.485Z,84.89
2023-07-24T16:52:11.980Z,84.81
2023-07-24T16:57:16.590Z,84.08
2023-07-24T17:02:19.741Z,82.85
2023-07-24T17:07:22.932Z,83.55
2023-07-24T17:12:27.480Z,84.17
2023-07-24T17:17:31.543Z,85.11
2023-07-24T17:22:34.647Z,85.48
2023-07-24T17:27:39.620Z,83.16
2023-07-24T17:32:42.812Z,83.17
2023-07-24T17:37:46.157Z,83.09
2023-07-24T17:42:52.454Z,82.94
2023-07-24T17:47:55.679Z,83.24
2023-07-24T17:52:58.837Z,80.98
2023-07-24T17:58:03.329Z,82.20
2023-07-24T18:03:06.496Z,82.75
2023-07-24T18:08:09.837Z,83.95
2023-07-24T18:13:14.645Z,82.93
2023-07-24T18:18:17.814Z,83.15
2023-07-24T18:23:21.012Z,83.13
2023-07-24T18:28:25.467Z,82.79
2023-07-24T18:33:28.574Z,84.29
2023-07-24T18:38:31.634Z,84.42
2023-07-24T18:43:36.201Z,83.78
2023-07-24T18:48:39.412Z,84.91
2023-07-24T18:53:42.705Z,86.55
2023-07-24T18:58:49.766Z,86.81
2023-07-24T19:03:53.151Z,86.68
2023-07-24T19:08:56.391Z,86.76
2023-07-24T19:14:00.888Z,86.47
2023-07-24T19:19:06.798Z,86.45
2023-07-24T19:24:10.549Z,87.06
2023-07-24T19:29:15.138Z,87.59
2023-07-24T19:34:18.324Z,88.50
2023-07-24T19:39:21.596Z,89.03
2023-07-24T19:44:26.106Z,89.71
2023-07-24T19:49:31.083Z,89.89
2023-07-24T19:54:34.249Z,89.92
2023-07-24T19:59:38.816Z,89.92
2023-07-24T20:04:42.028Z,90.09
2023-07-24T20:09:45.471Z,89.67
2023-07-24T20:14:49.947Z,90.05
2023-07-24T20:19:53.105Z,90.26
2023-07-24T20:24:56.331Z,90.08
2023-07-24T20:30:02.502Z,90.88
2023-07-24T20:35:06.257Z,90.81
2023-07-24T20:40:11.079Z,91.15
2023-07-24T20:45:15.849Z,91.04
2023-07-24T20:50:19.120Z,91.18
2023-07-24T20:55:22.305Z,91.34
2023-07-24T21:00:26.917Z,91.69
2023-07-24T21:05:30.511Z,91.34
2023-07-24T21:10:33.804Z,91.70
2023-07-24T21:15:38.558Z,92.10
2023-07-24T21:20:42.936Z,92.15
2023-07-24T21:25:54.796Z,92.65
2023-07-24T21:31:08.170Z,94.32
2023-07-24T21:36:11.267Z,93.68
2023-07-24T21:41:14.664Z,92.52
2023-07-24T21:46:19.232Z,93.34
2023-07-24T21:51:22.573Z,92.85
2023-07-24T21:56:25.676Z,93.22
2023-07-24T22:01:30.807Z,93.54
2023-07-24T22:06:34.703Z,94.37
2023-07-24T22:11:37.996Z,95.17
2023-07-24T22:16:42.734Z,94.78
2023-07-24T22:21:45.959Z,94.92
2023-07-24T22:26:49.011Z,94.46
2023-07-24T22:31:53.528Z,94.31
2023-07-24T22:36:56.531Z,94.42
2023-07-24T22:42:00.547Z,96.09
2023-07-24T22:47:05.666Z,95.16
2023-07-24T22:52:09.311Z,95.72
2023-07-24T22:57:12.364Z,96.01
2023-07-24T23:02:16.870Z,95.72
2023-07-24T23:07:20.037Z,95.37
2023-07-24T23:12:23.065Z,95.52
2023-07-24T23:17:27.541Z,95.89
2023-07-24T23:22:30.737Z,95.56
2023-07-24T23:27:33.857Z,96.81
2023-07-24T23:32:38.327Z,97.25
2023-07-24T23:37:41.378Z,96.58
2023-07-24T23:42:44.472Z,97.91
2023-07-24T23:47:49.030Z,97.06
2023-07-24T23:52:52.170Z,97.23
2023-07-24T23:57:55.217Z,97.40
